createdAt,value
2018-08-28T00:00:24.692Z,4.57
2018-08-28T00:02:52.995Z,4.20
2018-08-28T00:05:21.323Z,4.20
2018-08-28T00:07:49.628Z,4.10
2018-08-28T00:10:17.992Z,4.23
2018-08-28T00:12:46.275Z,4.50
2018-08-28T00:15:14.594Z,4.20
2018-08-28T00:17:42.985Z,4.13
2018-08-28T00:20:11.274Z,4.60
2018-08-28T00:22:39.627Z,4.10
2018-08-28T00:25:07.956Z,4.40
2018-08-28T00:27:36.267Z,4.07
2018-08-28T00:30:04.562Z,4.60
2018-08-28T00:32:32.887Z,4.40
2018-08-28T00:35:01.178Z,4.30
2018-08-28T00:37:29.476Z,4.10
2018-08-28T00:39:57.784Z,4.50
2018-08-28T00:42:26.155Z,4.27
2018-08-28T00:44:54.431Z,4.27
2018-08-28T00:47:22.883Z,4.20
2018-08-28T00:49:51.338Z,3.87
2018-08-28T00:52:19.695Z,4.20
2018-08-28T00:54:48.003Z,4.30
2018-08-28T00:57:16.304Z,3.97
2018-08-28T00:59:44.605Z,4.07
2018-08-28T01:02:12.922Z,4.00
2018-08-28T01:04:41.220Z,4.10
2018-08-28T01:07:09.577Z,4.07
2018-08-28T01:09:37.885Z,4.50
2018-08-28T01:12:06.180Z,4.10
2018-08-28T01:14:34.519Z,3.97
2018-08-28T01:17:02.776Z,4.17
2018-08-28T01:19:31.102Z,4.20
2018-08-28T01:21:59.421Z,3.90
2018-08-28T01:24:27.722Z,3.77
2018-08-28T01:26:56.034Z,3.87
2018-08-28T01:29:24.354Z,4.40
2018-08-28T01:31:52.670Z,4.10
2018-08-28T01:34:20.967Z,4.10
2018-08-28T01:36:49.262Z,4.40
2018-08-28T01:39:17.547Z,3.97
2018-08-28T01:41:45.852Z,4.27
2018-08-28T01:44:14.246Z,4.60
2018-08-28T01:46:42.599Z,5.00
2018-08-28T01:49:10.896Z,4.80
2018-08-28T01:51:39.218Z,4.23
2018-08-28T01:54:07.593Z,4.67
2018-08-28T01:56:35.973Z,4.37
2018-08-28T01:59:04.251Z,4.33
2018-08-28T02:01:32.599Z,4.80
2018-08-28T02:04:00.894Z,4.87
2018-08-28T02:06:29.236Z,4.60
2018-08-28T02:08:57.522Z,4.43
2018-08-28T02:11:26.011Z,4.50
2018-08-28T02:13:54.345Z,4.47
2018-08-28T02:16:22.621Z,4.27
2018-08-28T02:18:50.943Z,4.60
2018-08-28T02:21:19.335Z,4.30
2018-08-28T02:23:47.639Z,4.00
2018-08-28T02:26:15.933Z,3.93
2018-08-28T02:28:44.252Z,4.80
2018-08-28T02:31:12.535Z,4.17
2018-08-28T02:33:40.977Z,4.50
2018-08-28T02:36:09.311Z,4.90
2018-08-28T02:38:37.641Z,4.83
2018-08-28T02:41:05.990Z,5.37
2018-08-28T02:43:34.307Z,5.37
2018-08-28T02:46:02.615Z,4.60
2018-08-28T02:48:30.920Z,5.17
2018-08-28T02:50:59.216Z,5.13
2018-08-28T02:53:27.528Z,4.60
2018-08-28T02:55:55.809Z,4.93
2018-08-28T02:58:24.144Z,4.83
2018-08-28T03:00:52.525Z,4.93
2018-08-28T03:03:20.856Z,5.20
2018-08-28T03:05:49.218Z,4.90
2018-08-28T03:08:17.518Z,5.00
2018-08-28T03:10:45.846Z,4.60
2018-08-28T03:13:14.136Z,4.80
2018-08-28T03:15:42.565Z,5.67
2018-08-28T03:18:10.861Z,4.90
2018-08-28T03:20:39.175Z,4.70
2018-08-28T03:23:07.486Z,4.50
2018-08-28T03:25:35.779Z,4.63
2018-08-28T03:28:04.058Z,4.63
2018-08-28T03:30:32.447Z,4.80
2018-08-28T03:33:00.794Z,4.37
2018-08-28T03:35:29.087Z,5.10
2018-08-28T03:37:57.390Z,4.83
2018-08-28T03:40:25.691Z,4.63
2018-08-28T03:42:54.004Z,5.00
2018-08-28T03:45:22.302Z,4.80
2018-08-28T03:47:50.591Z,4.83
2018-08-28T03:50:18.979Z,4.73
2018-08-28T03:52:47.283Z,4.60
2018-08-28T03:55:15.632Z,5.00
2018-08-28T03:57:43.920Z,4.83
2018-08-28T04:00:12.299Z,4.97
2018-08-28T04:02:40.600Z,4.97
2018-08-28T04:05:08.931Z,4.83
2018-08-28T04:07:37.212Z,4.53
2018-08-28T04:10:05.706Z,4.73
2018-08-28T04:12:34.067Z,5.37
2018-08-28T04:15:02.361Z,5.07
2018-08-28T04:17:30.653Z,4.90
2018-08-28T04:19:58.974Z,5.10
2018-08-28T04:22:27.327Z,4.80
2018-08-28T04:24:55.619Z,5.10
2018-08-28T04:27:23.930Z,5.70
2018-08-28T04:29:52.241Z,4.90
2018-08-28T04:32:20.559Z,5.20
2018-08-28T04:34:48.881Z,5.37
2018-08-28T04:37:17.181Z,5.70
2018-08-28T04:39:45.490Z,5.80
2018-08-28T04:42:13.795Z,5.00
2018-08-28T04:44:42.175Z,4.60
2018-08-28T04:47:10.552Z,5.70
2018-08-28T04:49:38.887Z,5.37
2018-08-28T04:52:07.172Z,5.60
2018-08-28T04:54:35.496Z,5.40
2018-08-28T04:57:03.810Z,4.80
2018-08-28T04:59:32.123Z,5.63
2018-08-28T05:02:00.399Z,5.20
2018-08-28T05:04:28.703Z,5.10
2018-08-28T05:06:57.024Z,5.20
2018-08-28T05:09:25.339Z,5.13
2018-08-28T05:11:53.715Z,4.87
2018-08-28T05:14:22.030Z,5.30
2018-08-28T05:16:50.351Z,5.10
2018-08-28T05:19:18.729Z,5.37
2018-08-28T05:21:47.116Z,5.40
2018-08-28T05:24:15.432Z,5.40
2018-08-28T05:26:44.006Z,5.50
2018-08-28T05:29:12.511Z,5.90
2018-08-28T05:31:41.071Z,5.13
2018-08-28T05:34:09.384Z,6.27
2018-08-28T05:36:37.681Z,6.37
2018-08-28T05:39:06.757Z,6.00
2018-08-28T05:41:35.172Z,5.70
2018-08-28T05:44:03.716Z,5.50
2018-08-28T05:46:32.031Z,5.20
2018-08-28T05:49:00.389Z,5.60
2018-08-28T05:51:28.718Z,5.27
2018-08-28T05:53:57.030Z,5.20
2018-08-28T05:56:25.346Z,4.80
2018-08-28T05:58:53.654Z,5.00
2018-08-28T06:01:22.690Z,5.27
2018-08-28T06:03:51.059Z,5.10
2018-08-28T06:06:19.440Z,5.30
2018-08-28T06:08:47.884Z,4.87
2018-08-28T06:11:16.210Z,4.83
2018-08-28T06:13:44.559Z,5.23
2018-08-28T06:16:12.880Z,5.30
2018-08-28T06:18:41.404Z,4.70
2018-08-28T06:21:09.780Z,5.20
2018-08-28T06:23:38.091Z,5.43
2018-08-28T06:26:06.464Z,5.20
2018-08-28T06:28:34.752Z,5.30
2018-08-28T06:31:03.101Z,5.07
2018-08-28T06:33:31.405Z,5.60
2018-08-28T06:35:59.923Z,5.27
2018-08-28T06:38:28.224Z,6.12
2018-08-28T06:40:56.559Z,5.33
2018-08-28T06:43:24.876Z,5.30
2018-08-28T06:45:53.222Z,5.57
2018-08-28T06:48:21.548Z,5.07
2018-08-28T06:50:49.886Z,5.13
2018-08-28T06:53:18.192Z,5.53
2018-08-28T06:55:46.582Z,5.37
2018-08-28T06:58:14.951Z,5.43
2018-08-28T07:00:43.283Z,5.83
2018-08-28T07:03:11.604Z,5.30
2018-08-28T07:05:39.939Z,5.77
2018-08-28T07:08:08.245Z,5.10
2018-08-28T07:10:36.655Z,4.90
2018-08-28T07:13:05.313Z,5.20
2018-08-28T07:15:33.768Z,6.08
2018-08-28T07:18:02.086Z,5.43
2018-08-28T07:20:30.408Z,5.73
2018-08-28T07:22:59.416Z,5.27
2018-08-28T07:25:27.786Z,6.10
2018-08-28T07:27:56.073Z,5.30
2018-08-28T07:30:24.404Z,5.60
2018-08-28T07:32:52.724Z,6.27
2018-08-28T07:35:21.076Z,5.53
2018-08-28T07:37:49.437Z,6.10
2018-08-28T07:40:17.834Z,6.00
2018-08-28T07:42:46.212Z,6.33
2018-08-28T07:45:14.594Z,5.83
2018-08-28T07:47:42.949Z,6.83
2018-08-28T07:50:11.282Z,5.60
2018-08-28T07:52:39.615Z,5.90
2018-08-28T07:55:07.938Z,6.03
2018-08-28T07:57:36.293Z,5.77
2018-08-28T08:00:04.896Z,5.83
2018-08-28T08:02:33.247Z,6.50
2018-08-28T08:05:01.552Z,5.43
2018-08-28T08:07:29.859Z,5.90
2018-08-28T08:09:58.162Z,5.67
2018-08-28T08:12:26.460Z,5.63
2018-08-28T08:14:54.771Z,6.30
2018-08-28T08:17:23.150Z,6.13
2018-08-28T08:19:51.839Z,5.83
2018-08-28T08:22:20.160Z,5.93
2018-08-28T08:24:48.555Z,6.50
2018-08-28T08:27:16.912Z,5.80
2018-08-28T08:29:45.231Z,5.13
2018-08-28T08:32:13.557Z,5.50
2018-08-28T08:34:41.907Z,11.33
2018-08-28T08:37:11.944Z,5.33
2018-08-28T08:39:40.275Z,5.17
2018-08-28T08:42:08.695Z,5.13
2018-08-28T08:44:37.018Z,5.53
2018-08-28T08:47:05.372Z,5.67
2018-08-28T08:49:33.702Z,5.80
2018-08-28T08:52:02.063Z,6.53
2018-08-28T08:54:30.376Z,5.80
2018-08-28T08:56:58.695Z,5.87
2018-08-28T08:59:27.026Z,5.57
2018-08-28T09:01:55.386Z,5.57
2018-08-28T09:04:23.679Z,5.53
2018-08-28T09:06:52.004Z,5.07
2018-08-28T09:09:20.318Z,5.03
2018-08-28T09:11:48.662Z,4.70
2018-08-28T09:14:16.981Z,5.03
2018-08-28T09:16:45.291Z,5.13
2018-08-28T09:19:13.659Z,5.00
2018-08-28T09:21:41.946Z,5.70
2018-08-28T09:24:10.249Z,5.93
2018-08-28T09:26:38.601Z,5.63
2018-08-28T09:29:07.068Z,8.73
2018-08-28T09:31:35.438Z,12.27
2018-08-28T09:34:03.786Z,6.63
2018-08-28T09:36:32.139Z,7.47
2018-08-28T09:39:00.473Z,6.10
2018-08-28T09:41:28.847Z,5.43
2018-08-28T09:43:57.377Z,5.17
2018-08-28T09:46:25.524Z,5.40
2018-08-28T09:48:53.868Z,5.33
2018-08-28T09:51:22.185Z,5.53
2018-08-28T09:53:50.525Z,5.43
2018-08-28T09:56:18.879Z,5.30
2018-08-28T09:58:47.183Z,5.27
2018-08-28T10:01:20.850Z,4.70
2018-08-28T10:03:49.193Z,5.60
2018-08-28T10:06:17.516Z,4.90
2018-08-28T10:08:45.839Z,4.23
2018-08-28T10:11:14.159Z,4.00
2018-08-28T10:13:42.495Z,4.63
2018-08-28T10:16:10.799Z,4.67
2018-08-28T10:18:39.143Z,5.07
2018-08-28T10:21:07.514Z,4.23
2018-08-28T10:23:35.840Z,4.47
2018-08-28T10:26:04.142Z,4.73
2018-08-28T10:28:32.456Z,4.83
2018-08-28T10:31:00.902Z,4.63
2018-08-28T10:33:29.240Z,4.57
2018-08-28T10:35:57.519Z,4.57
2018-08-28T10:38:25.816Z,4.93
2018-08-28T10:40:54.113Z,5.03
2018-08-28T10:43:22.462Z,4.20
2018-08-28T10:45:51.097Z,4.90
2018-08-28T10:48:19.435Z,4.57
2018-08-28T10:50:47.733Z,4.70
2018-08-28T10:53:16.043Z,5.20
2018-08-28T10:55:44.433Z,4.87
2018-08-28T10:58:12.831Z,4.70
2018-08-28T11:00:41.168Z,5.13
2018-08-28T11:03:09.503Z,3.97
2018-08-28T11:05:37.831Z,4.57
2018-08-28T11:08:06.389Z,4.30
2018-08-28T11:10:34.710Z,4.50
2018-08-28T11:13:03.058Z,4.57
2018-08-28T11:15:31.599Z,4.80
2018-08-28T11:17:59.908Z,4.40
2018-08-28T11:20:28.228Z,4.80
2018-08-28T11:22:56.591Z,5.00
2018-08-28T11:25:24.837Z,5.07
2018-08-28T11:27:53.207Z,5.93
2018-08-28T11:30:21.583Z,4.57
2018-08-28T11:32:50.020Z,5.07
2018-08-28T11:35:18.552Z,4.70
2018-08-28T11:37:46.935Z,5.33
2018-08-28T11:40:15.245Z,4.67
2018-08-28T11:42:43.552Z,4.30
2018-08-28T11:45:11.849Z,4.50
2018-08-28T11:47:40.181Z,4.50
2018-08-28T11:50:08.707Z,4.40
2018-08-28T11:52:37.092Z,4.53
2018-08-28T11:55:05.384Z,4.60
2018-08-28T11:57:33.814Z,5.00
2018-08-28T12:00:02.140Z,4.53
2018-08-28T12:02:30.436Z,4.40
2018-08-28T12:04:59.052Z,4.60
2018-08-28T12:07:27.481Z,4.50
2018-08-28T12:09:55.913Z,4.90
2018-08-28T12:12:24.233Z,4.47
2018-08-28T12:14:52.602Z,4.50
2018-08-28T12:17:20.906Z,4.50
2018-08-28T12:19:49.294Z,4.97
2018-08-28T12:22:17.602Z,4.77
2018-08-28T12:24:45.926Z,4.63
2018-08-28T12:27:14.318Z,5.00
2018-08-28T12:29:42.683Z,4.23
2018-08-28T12:32:11.055Z,7.40
2018-08-28T12:34:39.388Z,4.97
2018-08-28T12:37:07.698Z,4.30
2018-08-28T12:39:36.027Z,4.80
2018-08-28T12:42:04.375Z,5.20
2018-08-28T12:44:32.729Z,4.70
2018-08-28T12:47:01.060Z,4.83
2018-08-28T12:49:29.363Z,4.67
2018-08-28T12:51:57.736Z,4.63
2018-08-28T12:54:26.056Z,4.07
2018-08-28T12:56:54.351Z,4.63
2018-08-28T12:59:22.688Z,4.40
2018-08-28T13:01:50.963Z,4.60
2018-08-28T13:04:19.305Z,4.60
2018-08-28T13:06:47.788Z,4.07
2018-08-28T13:09:16.124Z,4.50
2018-08-28T13:11:44.439Z,4.37
2018-08-28T13:14:12.867Z,4.17
2018-08-28T13:16:41.536Z,4.13
2018-08-28T13:19:09.888Z,4.57
2018-08-28T13:21:38.599Z,3.77
2018-08-28T13:24:06.918Z,4.20
2018-08-28T13:26:35.247Z,4.90
2018-08-28T13:29:03.629Z,4.20
2018-08-28T13:31:31.952Z,4.50
2018-08-28T13:34:00.267Z,3.97
2018-08-28T13:36:28.553Z,4.40
2018-08-28T13:38:56.863Z,3.83
2018-08-28T13:41:25.199Z,4.00
2018-08-28T13:43:53.756Z,4.10
2018-08-28T13:46:22.082Z,4.60
2018-08-28T13:48:50.447Z,4.77
2018-08-28T13:51:18.776Z,4.13
2018-08-28T13:53:47.112Z,4.20
2018-08-28T13:56:15.384Z,3.70
2018-08-28T13:58:43.775Z,4.00
2018-08-28T14:01:12.091Z,4.43
2018-08-28T14:03:40.426Z,3.57
2018-08-28T14:06:08.747Z,4.40
2018-08-28T14:08:37.049Z,3.83
2018-08-28T14:11:05.411Z,4.10
2018-08-28T14:13:33.818Z,3.90
2018-08-28T14:16:02.153Z,4.03
2018-08-28T14:18:30.535Z,3.67
2018-08-28T14:20:58.864Z,3.93
2018-08-28T14:23:27.212Z,3.77
2018-08-28T14:25:55.584Z,4.00
2018-08-28T14:28:24.007Z,3.73
2018-08-28T14:30:52.497Z,4.07
2018-08-28T14:33:20.788Z,3.40
2018-08-28T14:35:49.446Z,3.60
2018-08-28T14:38:17.791Z,3.63
2018-08-28T14:40:46.116Z,4.10
2018-08-28T14:43:14.428Z,3.83
2018-08-28T14:45:42.794Z,3.80
2018-08-28T14:48:11.110Z,3.87
2018-08-28T14:50:39.459Z,3.75
2018-08-28T14:53:07.820Z,4.00
2018-08-28T14:55:36.167Z,4.37
2018-08-28T14:58:04.491Z,4.50
2018-08-28T15:00:32.808Z,4.15
2018-08-28T15:03:01.794Z,3.90
2018-08-28T15:05:30.112Z,3.90
2018-08-28T15:07:58.483Z,3.98
2018-08-28T15:10:26.838Z,3.90
2018-08-28T15:12:55.168Z,4.15
2018-08-28T15:15:23.481Z,3.87
2018-08-28T15:17:51.815Z,3.98
2018-08-28T15:20:20.163Z,4.20
2018-08-28T15:22:48.718Z,3.35
2018-08-28T15:25:17.072Z,3.60
2018-08-28T15:27:45.359Z,3.33
2018-08-28T15:30:13.747Z,3.80
2018-08-28T15:32:42.088Z,3.15
2018-08-28T15:35:10.397Z,3.60
2018-08-28T15:37:38.701Z,3.40
2018-08-28T15:40:07.065Z,3.25
2018-08-28T15:42:35.383Z,3.65
2018-08-28T15:45:03.697Z,3.35
2018-08-28T15:47:32.032Z,3.80
2018-08-28T15:50:00.368Z,3.42
2018-08-28T15:52:28.703Z,3.50
2018-08-28T15:54:57.011Z,3.75
2018-08-28T15:57:25.311Z,3.55
2018-08-28T15:59:53.659Z,4.00
2018-08-28T16:02:22.055Z,3.60
2018-08-28T16:04:50.452Z,3.25
2018-08-28T16:07:18.759Z,3.37
2018-08-28T16:09:47.078Z,3.40
2018-08-28T16:12:15.381Z,3.45
2018-08-28T16:14:43.787Z,3.65
2018-08-28T16:17:12.096Z,4.08
2018-08-28T16:19:40.437Z,3.62
2018-08-28T16:22:08.787Z,3.20
2018-08-28T16:24:37.086Z,3.40
2018-08-28T16:27:05.455Z,3.87
2018-08-28T16:29:33.812Z,3.58
2018-08-28T16:32:02.542Z,3.70
2018-08-28T16:34:30.843Z,3.30
2018-08-28T16:36:59.233Z,3.70
2018-08-28T16:39:27.593Z,3.45
2018-08-28T16:41:55.895Z,3.37
2018-08-28T16:44:24.186Z,3.75
2018-08-28T16:46:52.619Z,3.55
2018-08-28T16:49:20.870Z,3.22
2018-08-28T16:51:49.240Z,3.27
2018-08-28T16:54:17.546Z,3.25
2018-08-28T16:56:45.913Z,3.75
2018-08-28T16:59:14.517Z,3.62
2018-08-28T17:01:42.964Z,4.03
2018-08-28T17:04:11.245Z,4.12
2018-08-28T17:06:39.535Z,3.80
2018-08-28T17:09:07.822Z,4.00
2018-08-28T17:11:36.129Z,3.85
2018-08-28T17:14:04.438Z,5.45
2018-08-28T17:16:32.778Z,3.42
2018-08-28T17:19:01.212Z,3.50
2018-08-28T17:21:29.517Z,4.00
2018-08-28T17:23:57.888Z,3.62
2018-08-28T17:26:26.224Z,4.47
2018-08-28T17:28:54.524Z,3.95
2018-08-28T17:31:22.831Z,4.30
2018-08-28T17:33:51.161Z,4.40
2018-08-28T17:36:19.505Z,4.40
2018-08-28T17:38:47.813Z,4.37
2018-08-28T17:41:16.140Z,5.50
2018-08-28T17:43:44.467Z,4.47
2018-08-28T17:46:12.763Z,5.10
2018-08-28T17:48:41.068Z,4.97
2018-08-28T17:51:09.938Z,5.10
2018-08-28T17:53:38.213Z,5.27
2018-08-28T17:56:06.578Z,5.53
2018-08-28T17:58:34.907Z,5.97
2018-08-28T18:01:03.259Z,6.50
2018-08-28T18:03:31.601Z,5.50
2018-08-28T18:05:59.907Z,6.30
2018-08-28T18:08:28.193Z,6.53
2018-08-28T18:10:56.534Z,5.90
2018-08-28T18:13:24.865Z,6.07
2018-08-28T18:15:53.157Z,6.00
2018-08-28T18:18:21.442Z,6.50
2018-08-28T18:20:49.787Z,6.30
2018-08-28T18:23:18.129Z,6.97
2018-08-28T18:25:46.472Z,7.07
2018-08-28T18:28:14.884Z,6.90
2018-08-28T18:30:43.332Z,6.77
2018-08-28T18:33:11.930Z,6.43
2018-08-28T18:35:40.262Z,5.90
2018-08-28T18:38:08.586Z,6.00
2018-08-28T18:40:36.877Z,5.40
2018-08-28T18:43:05.180Z,5.73
2018-08-28T18:45:33.715Z,5.20
2018-08-28T18:48:02.046Z,5.10
2018-08-28T18:50:30.331Z,5.13
2018-08-28T18:52:58.692Z,5.43
2018-08-28T18:55:27.003Z,6.20
2018-08-28T18:57:55.307Z,5.73
2018-08-28T19:00:23.675Z,5.90
2018-08-28T19:02:52.131Z,5.43
2018-08-28T19:05:20.365Z,6.10
2018-08-28T19:07:48.763Z,6.87
2018-08-28T19:10:17.019Z,5.60
2018-08-28T19:12:45.560Z,5.70
2018-08-28T19:15:13.827Z,5.67
2018-08-28T19:17:42.119Z,6.13
2018-08-28T19:20:10.434Z,4.93
2018-08-28T19:22:39.064Z,5.70
2018-08-28T19:25:07.431Z,5.40
2018-08-28T19:27:35.782Z,6.30
2018-08-28T19:30:04.082Z,5.37
2018-08-28T19:32:32.403Z,5.93
2018-08-28T19:35:00.797Z,5.10
2018-08-28T19:37:29.231Z,5.47
2018-08-28T19:39:57.808Z,4.60
2018-08-28T19:42:26.216Z,5.33
2018-08-28T19:44:54.566Z,4.60
2018-08-28T19:48:25.970Z,5.10
2018-08-28T19:50:54.272Z,5.70
2018-08-28T19:53:22.597Z,4.90
2018-08-28T19:55:51.062Z,7.47
2018-08-28T19:58:19.533Z,6.63
2018-08-28T20:00:47.938Z,6.07
2018-08-28T20:03:16.313Z,6.93
2018-08-28T20:05:44.761Z,7.03
2018-08-28T20:08:13.049Z,7.47
2018-08-28T20:10:41.323Z,7.20
2018-08-28T20:13:09.674Z,6.60
2018-08-28T20:15:38.008Z,6.37
2018-08-28T20:18:06.355Z,6.63
2018-08-28T20:20:34.829Z,7.13
2018-08-28T20:23:03.215Z,7.10
2018-08-28T20:25:31.499Z,6.20
2018-08-28T20:28:00.114Z,6.40
2018-08-28T20:30:28.478Z,7.70
2018-08-28T20:32:57.710Z,7.13
2018-08-28T20:35:26.189Z,6.77
2018-08-28T20:37:54.529Z,7.20
2018-08-28T20:40:22.851Z,7.23
2018-08-28T20:42:51.198Z,6.33
2018-08-28T20:45:19.563Z,6.37
2018-08-28T20:47:47.912Z,6.33
2018-08-28T20:50:16.238Z,6.73
2018-08-28T20:52:44.583Z,5.90
2018-08-28T20:55:12.878Z,6.10
2018-08-28T20:57:41.234Z,6.43
2018-08-28T21:00:09.597Z,6.80
2018-08-28T21:02:37.978Z,6.57
2018-08-28T21:05:06.293Z,5.77
2018-08-28T21:07:35.051Z,6.70
2018-08-28T21:10:03.395Z,6.70
2018-08-28T21:12:31.784Z,6.93
2018-08-28T21:15:00.104Z,6.50
2018-08-28T21:17:28.766Z,6.53
2018-08-28T21:19:57.157Z,6.53
2018-08-28T21:22:25.505Z,6.10
2018-08-28T21:24:53.900Z,6.50
2018-08-28T21:27:22.179Z,6.37
2018-08-28T21:29:50.492Z,6.73
2018-08-28T21:32:18.790Z,6.53
2018-08-28T21:34:53.558Z,6.43
2018-08-28T21:37:21.875Z,6.87
2018-08-28T21:39:50.378Z,6.80
2018-08-28T21:42:18.749Z,7.03
2018-08-28T21:44:47.958Z,6.40
2018-08-28T21:47:16.284Z,6.83
2018-08-28T21:49:44.617Z,6.50
2018-08-28T21:52:12.955Z,7.37
2018-08-28T21:54:41.372Z,5.87
2018-08-28T21:57:09.734Z,6.87
2018-08-28T21:59:38.121Z,6.27
2018-08-28T22:02:06.427Z,6.73
2018-08-28T22:04:34.986Z,6.73
2018-08-28T22:07:08.715Z,6.13
2018-08-28T22:09:37.024Z,6.90
2018-08-28T22:12:05.483Z,6.27
2018-08-28T22:14:33.976Z,6.17
2018-08-28T22:17:02.832Z,5.60
2018-08-28T22:19:31.152Z,6.57
2018-08-28T22:21:59.431Z,6.80
2018-08-28T22:24:27.862Z,7.03
2018-08-28T22:26:56.165Z,6.00
2018-08-28T22:29:24.449Z,7.00
2018-08-28T22:31:52.735Z,6.13
2018-08-28T22:34:21.047Z,5.63
2018-08-28T22:36:49.336Z,6.27
2018-08-28T22:39:17.632Z,6.47
2018-08-28T22:41:45.915Z,6.60
2018-08-28T22:44:14.222Z,6.60
2018-08-28T22:46:42.493Z,7.17
2018-08-28T22:49:10.786Z,6.50
2018-08-28T22:51:39.084Z,6.13
2018-08-28T22:54:07.388Z,6.53
2018-08-28T22:56:35.668Z,6.87
2018-08-28T22:59:03.939Z,6.70
2018-08-28T23:01:32.192Z,6.40
2018-08-28T23:04:00.650Z,6.27
2018-08-28T23:06:28.940Z,6.73
2018-08-28T23:08:57.259Z,6.43
2018-08-28T23:11:25.552Z,7.00
2018-08-28T23:13:53.842Z,6.50
2018-08-28T23:16:22.126Z,6.40
2018-08-28T23:18:50.475Z,6.10
2018-08-28T23:21:18.796Z,6.50
2018-08-28T23:23:47.125Z,6.23
2018-08-28T23:26:15.436Z,5.90
2018-08-28T23:28:43.686Z,5.83
2018-08-28T23:31:11.988Z,5.90
2018-08-28T23:33:40.279Z,5.70
2018-08-28T23:36:08.568Z,5.80
2018-08-28T23:38:36.855Z,6.07
2018-08-28T23:41:05.522Z,5.67
2018-08-28T23:43:33.805Z,5.93
2018-08-28T23:46:02.094Z,6.67
2018-08-28T23:48:30.379Z,6.43
2018-08-28T23:50:58.663Z,6.80
2018-08-28T23:53:26.943Z,7.33
2018-08-28T23:55:55.260Z,7.33
2018-08-28T23:58:23.593Z,7.67
